Time;durP1;ratioP1;P1;durP2;ratioP2;P2;SDS_P1;SDS_P2;PMS_P1;PMS_P2;Temp;Humidity;BMP_temperature;BMP_pressure;BME280_temperature;BME280_humidity;BME280_pressure;Samples;Min_cycle;Max_cycle;Signal;HPM_P1;HPM_P2
2021/12/30 00:08:39;;;;;;;11.60;2.70;;;12.40;99.90;;;;;;6644878;88;20689;-75
2021/12/30 00:18:40;;;;;;;10.13;2.22;;;12.40;99.90;;;;;;6633018;88;20177;-74
2021/12/30 00:28:41;;;;;;;11.80;2.25;;;12.30;99.90;;;;;;6652021;88;20227;-75
2021/12/30 00:38:43;;;;;;;14.52;2.80;;;12.10;99.90;;;;;;6620183;88;20652;-75
2021/12/30 00:48:44;;;;;;;14.02;2.55;;;11.90;99.90;;;;;;6637093;88;20921;-75
2021/12/30 00:58:44;;;;;;;12.20;3.12;;;11.90;99.90;;;;;;6627190;89;20206;-75
2021/12/30 01:08:45;;;;;;;13.65;2.75;;;11.80;99.90;;;;;;6642243;88;20201;-75
2021/12/30 01:19:15;;;;;;;11.30;2.20;;;11.90;99.90;;;;;;6628860;89;20209;-74
2021/12/30 01:29:16;;;;;;;12.65;2.80;;;11.90;99.90;;;;;;6625600;89;20308;-74
2021/12/30 01:39:18;;;;;;;14.02;2.47;;;12.10;99.90;;;;;;6629383;89;20196;-75
2021/12/30 01:49:19;;;;;;;11.27;2.20;;;12.00;99.90;;;;;;6632065;89;20774;-75
2021/12/30 01:59:22;;;;;;;9.00;2.50;;;11.90;99.90;;;;;;6623321;89;20181;-75
2021/12/30 02:09:24;;;;;;;12.48;2.10;;;11.90;99.90;;;;;;6626693;88;21109;-74
2021/12/30 02:19:25;;;;;;;10.27;2.30;;;11.80;99.90;;;;;;6613651;89;20201;-74
2021/12/30 02:29:25;;;;;;;10.53;2.20;;;11.80;99.90;;;;;;6613296;89;20215;-75
2021/12/30 02:39:26;;;;;;;10.73;2.12;;;11.60;99.90;;;;;;6614264;89;20522;-74
2021/12/30 02:49:26;;;;;;;10.18;2.20;;;11.50;99.90;;;;;;6614080;89;20191;-74
2021/12/30 02:59:27;;;;;;;10.27;2.00;;;11.60;99.90;;;;;;6615005;89;20215;-75
2021/12/30 03:09:27;;;;;;;12.75;2.10;;;11.50;99.90;;;;;;6611933;89;20580;-74
2021/12/30 03:19:28;;;;;;;9.50;2.37;;;11.40;99.90;;;;;;6612984;89;20264;-75
2021/12/30 03:29:28;;;;;;;10.88;2.33;;;11.10;99.90;;;;;;6606056;89;20361;-75
2021/12/30 03:39:29;;;;;;;8.85;2.20;;;11.00;99.90;;;;;;6606534;89;20795;-74
2021/12/30 03:49:29;;;;;;;13.77;2.40;;;10.90;99.90;;;;;;6602335;89;20333;-74
2021/12/30 03:59:30;;;;;;;13.38;2.55;;;10.90;99.90;;;;;;6614125;89;20193;-74
2021/12/30 04:09:31;;;;;;;11.10;2.40;;;10.70;99.90;;;;;;6615491;89;20189;-74
2021/12/30 04:19:32;;;;;;;12.32;2.85;;;10.70;99.90;;;;;;6614154;89;20266;-74
2021/12/30 04:29:32;;;;;;;16.08;2.97;;;10.60;99.90;;;;;;6620277;89;20181;-74
2021/12/30 04:39:33;;;;;;;12.43;4.57;;;10.50;99.90;;;;;;6630282;88;20242;-74
2021/12/30 04:49:33;;;;;;;13.77;3.30;;;10.50;99.90;;;;;;6629716;89;20189;-74
2021/12/30 04:59:34;;;;;;;9.18;2.92;;;10.60;99.90;;;;;;6629338;88;20364;-74
2021/12/30 05:09:35;;;;;;;10.25;3.10;;;10.70;99.90;;;;;;6626949;88;20214;-74
2021/12/30 05:19:35;;;;;;;10.20;2.60;;;10.80;99.90;;;;;;6630338;88;20181;-75
2021/12/30 05:29:36;;;;;;;9.23;2.42;;;10.90;99.90;;;;;;6631351;88;20207;-74
2021/12/30 05:39:40;;;;;;;9.90;2.80;;;11.10;99.90;;;;;;6629895;88;20185;-74
2021/12/30 05:49:41;;;;;;;5.65;2.25;;;11.20;99.90;;;;;;6630291;88;20568;-75
2021/12/30 05:59:42;;;;;;;12.05;2.45;;;11.20;99.90;;;;;;6629619;89;20198;-75
2021/12/30 06:09:42;;;;;;;8.25;2.50;;;11.30;99.90;;;;;;6626695;89;20193;-74
2021/12/30 06:19:43;;;;;;;7.35;2.60;;;11.30;99.90;;;;;;6630587;89;20236;-74
2021/12/30 06:39:47;;;;;;;5.90;2.50;;;11.50;99.90;;;;;;6655710;89;20204;-78
2021/12/30 06:49:48;;;;;;;10.48;3.17;;;11.40;99.90;;;;;;6733028;88;20727;-77
2021/12/30 06:59:48;;;;;;;9.00;3.20;;;11.50;99.90;;;;;;6738881;88;20192;-77
2021/12/30 07:09:49;;;;;;;7.15;1.90;;;11.50;99.90;;;;;;6739965;88;20662;-78
2021/12/30 07:19:49;;;;;;;4.00;1.33;;;11.70;99.90;;;;;;6737752;88;20195;-79
2021/12/30 07:29:50;;;;;;;4.12;0.68;;;12.30;99.90;;;;;;6736895;88;20233;-77
2021/12/30 07:39:51;;;;;;;0.88;0.30;;;12.70;99.90;;;;;;6735951;88;20309;-78
2021/12/30 07:49:51;;;;;;;1.45;0.50;;;13.30;99.90;;;;;;6734787;88;20188;-76
2021/12/30 07:59:52;;;;;;;0.40;0.20;;;13.50;99.90;;;;;;6735473;88;20208;-77
2021/12/30 08:09:54;;;;;;;0.70;0.20;;;13.80;99.90;;;;;;6734638;88;20578;-78
2021/12/30 08:19:55;;;;;;;0.93;0.20;;;13.80;99.90;;;;;;6733669;88;20185;-77
2021/12/30 08:29:55;;;;;;;0.40;0.20;;;13.90;99.90;;;;;;6733447;88;20216;-78
2021/12/30 08:39:56;;;;;;;2.40;0.20;;;14.10;99.90;;;;;;6730407;88;20592;-77
2021/12/30 08:49:57;;;;;;;1.67;0.22;;;14.20;99.90;;;;;;6738068;88;20615;-77
2021/12/30 08:59:57;;;;;;;0.57;0.20;;;14.50;99.90;;;;;;6734199;88;20209;-77
2021/12/30 09:09:58;;;;;;;0.45;0.20;;;14.60;99.90;;;;;;6724232;88;20241;-77
2021/12/30 09:19:58;;;;;;;1.27;0.20;;;14.70;99.90;;;;;;6722438;88;20343;-77
2021/12/30 09:29:59;;;;;;;0.40;0.20;;;14.90;99.90;;;;;;6735544;88;20717;-78
2021/12/30 09:40:00;;;;;;;1.23;0.30;;;14.80;99.90;;;;;;6725191;88;20189;-77
2021/12/30 09:50:01;;;;;;;1.70;0.30;;;15.00;99.90;;;;;;6729835;88;20202;-79
2021/12/30 10:00:06;;;;;;;2.20;0.30;;;15.00;99.90;;;;;;6738002;88;20620;-78
2021/12/30 10:10:38;;;;;;;2.80;0.20;;;15.10;99.90;;;;;;6727299;88;20231;-78
2021/12/30 10:20:40;;;;;;;0.80;0.20;;;15.70;99.90;;;;;;6741044;88;20243;-77
2021/12/30 10:30:41;;;;;;;1.10;0.30;;;15.80;99.90;;;;;;6729723;88;20567;-78
2021/12/30 10:40:45;;;;;;;1.00;0.20;;;15.70;99.90;;;;;;6730404;88;20186;-76
2021/12/30 10:50:45;;;;;;;1.98;0.30;;;15.80;99.90;;;;;;6729171;88;20462;-76
2021/12/30 11:00:46;;;;;;;1.15;0.25;;;15.70;99.90;;;;;;6729186;88;20245;-76
2021/12/30 11:10:46;;;;;;;1.08;0.45;;;15.40;99.90;;;;;;6731654;88;20743;-76
2021/12/30 11:20:48;;;;;;;0.73;0.28;;;15.50;99.90;;;;;;6733569;88;20192;-76
2021/12/30 11:30:49;;;;;;;0.65;0.20;;;15.80;99.90;;;;;;6706976;88;20194;-76
2021/12/30 11:40:50;;;;;;;2.12;0.40;;;15.70;99.90;;;;;;6730372;88;20205;-77
2021/12/30 11:51:06;;;;;;;1.10;0.50;;;15.70;99.90;;;;;;6729562;88;20181;-76
2021/12/30 12:01:12;;;;;;;;;;;15.80;99.90;;;;;;6730216;88;20184;-76
2021/12/30 12:11:19;;;;;;;2.70;0.80;;;15.70;99.90;;;;;;6718372;88;20086;-77
2021/12/30 12:21:19;;;;;;;2.90;0.80;;;15.30;99.90;;;;;;6663690;88;20187;-76
2021/12/30 12:31:20;;;;;;;3.10;0.68;;;15.00;99.90;;;;;;6709037;88;20400;-76
2021/12/30 12:41:28;;;;;;;2.75;0.60;;;15.30;99.90;;;;;;6737665;88;20330;-77
2021/12/30 12:51:28;;;;;;;2.33;0.80;;;15.50;99.90;;;;;;6744567;88;20276;-77
2021/12/30 13:01:30;;;;;;;1.48;0.50;;;15.60;99.90;;;;;;6735084;88;20309;-75
2021/12/30 13:11:35;;;;;;;3.20;0.77;;;15.80;99.90;;;;;;6689368;88;20196;-77
2021/12/30 13:21:41;;;;;;;1.60;0.47;;;15.70;99.90;;;;;;6721413;88;20319;-76
2021/12/30 13:31:42;;;;;;;1.48;0.60;;;15.90;99.90;;;;;;6716967;88;20200;-76
2021/12/30 13:41:53;;;;;;;2.25;0.50;;;16.20;99.90;;;;;;6720129;88;20192;-76
2021/12/30 13:51:55;;;;;;;1.55;0.40;;;16.00;99.90;;;;;;6736914;88;20607;-75
2021/12/30 14:01:59;;;;;;;1.33;0.40;;;15.70;99.90;;;;;;6741504;88;20223;-75
2021/12/30 14:12:09;;;;;;;1.52;0.40;;;15.60;99.90;;;;;;6737867;88;20545;-75
2021/12/30 14:22:10;;;;;;;2.40;0.50;;;15.60;99.90;;;;;;6736301;88;20266;-76
2021/12/30 14:32:14;;;;;;;1.10;0.40;;;15.60;99.90;;;;;;6737364;88;20195;-76
2021/12/30 14:42:22;;;;;;;2.95;0.60;;;15.60;99.90;;;;;;6726503;88;20680;-75
2021/12/30 14:52:35;;;;;;;2.90;0.60;;;15.60;99.90;;;;;;6740873;88;20306;-76
2021/12/30 15:02:36;;;;;;;1.73;0.60;;;15.50;99.90;;;;;;6730823;88;20188;-75
2021/12/30 15:12:39;;;;;;;2.30;0.70;;;15.50;99.90;;;;;;6652873;88;21768;-77
2021/12/30 15:22:40;;;;;;;2.58;0.57;;;15.50;99.90;;;;;;6665789;88;20591;-76
2021/12/30 15:32:41;;;;;;;2.03;0.70;;;15.40;99.90;;;;;;6640701;88;20307;-76
2021/12/30 15:42:43;;;;;;;3.03;0.60;;;15.30;99.90;;;;;;6646494;88;20308;-76
2021/12/30 15:52:52;;;;;;;2.90;0.80;;;15.30;99.90;;;;;;6708716;88;20383;-76
2021/12/30 16:02:53;;;;;;;2.37;0.82;;;15.20;99.90;;;;;;6742542;88;20323;-75
2021/12/30 16:12:55;;;;;;;3.75;1.00;;;15.10;99.90;;;;;;6724725;88;20189;-75
2021/12/30 16:22:56;;;;;;;2.97;0.80;;;15.00;99.90;;;;;;6720308;88;20668;-74
2021/12/30 16:32:56;;;;;;;2.65;1.00;;;15.00;99.90;;;;;;6726239;88;20206;-74
2021/12/30 16:42:57;;;;;;;3.60;0.93;;;14.90;99.90;;;;;;6720195;88;20162;-75
2021/12/30 16:52:57;;;;;;;3.00;0.80;;;14.80;99.90;;;;;;6723247;88;20193;-75
2021/12/30 17:02:58;;;;;;;2.30;0.90;;;14.90;99.90;;;;;;6726830;88;20287;-75
2021/12/30 17:12:58;;;;;;;2.33;0.95;;;14.90;99.90;;;;;;6715081;88;20236;-75
2021/12/30 17:22:59;;;;;;;2.62;0.80;;;14.90;99.90;;;;;;6730636;88;20204;-75
2021/12/30 17:33:00;;;;;;;1.85;0.80;;;14.70;99.90;;;;;;6733531;88;20226;-75
2021/12/30 17:43:00;;;;;;;2.72;0.88;;;14.70;99.90;;;;;;6728978;88;20169;-75
2021/12/30 17:53:03;;;;;;;2.77;1.40;;;14.70;99.90;;;;;;6733797;88;20251;-77
2021/12/30 18:03:04;;;;;;;1.90;1.02;;;14.70;99.90;;;;;;6727877;88;20942;-76
2021/12/30 18:13:06;;;;;;;4.13;1.03;;;14.80;99.90;;;;;;6727625;88;20198;-76
2021/12/30 18:23:07;;;;;;;2.47;0.95;;;14.70;99.90;;;;;;6719923;88;20541;-80
2021/12/30 18:33:09;;;;;;;3.95;0.82;;;14.50;99.90;;;;;;6723991;88;20680;-77
2021/12/30 18:43:10;;;;;;;3.37;1.00;;;14.50;99.90;;;;;;6732691;88;20188;-76
2021/12/30 18:53:12;;;;;;;3.53;1.10;;;14.50;99.90;;;;;;6740568;88;20212;-76
2021/12/30 19:03:13;;;;;;;3.10;1.00;;;14.60;99.90;;;;;;6731162;88;20665;-76
2021/12/30 19:13:17;;;;;;;5.78;1.00;;;14.70;99.90;;;;;;6731662;88;20240;-76
2021/12/30 19:23:17;;;;;;;3.97;1.10;;;14.70;99.90;;;;;;6711969;88;20628;-76
2021/12/30 19:33:19;;;;;;;1.52;0.70;;;14.80;99.90;;;;;;6723170;88;20185;-75
2021/12/30 19:43:19;;;;;;;1.73;0.80;;;14.80;99.90;;;;;;6729013;88;20707;-76
2021/12/30 19:53:20;;;;;;;1.40;0.57;;;14.70;99.90;;;;;;6721418;88;20185;-76
2021/12/30 20:03:23;;;;;;;1.17;0.57;;;14.70;99.90;;;;;;6711813;88;20308;-76
2021/12/30 20:13:25;;;;;;;1.62;0.70;;;14.80;99.90;;;;;;6719491;88;20679;-77
2021/12/30 20:23:25;;;;;;;2.67;0.80;;;14.80;99.90;;;;;;6718140;88;20216;-75
2021/12/30 20:33:26;;;;;;;2.75;0.70;;;14.80;99.90;;;;;;6709638;88;20221;-76
2021/12/30 20:43:27;;;;;;;2.08;0.70;;;14.70;99.90;;;;;;6705446;88;20944;-74
2021/12/30 20:53:29;;;;;;;1.85;0.60;;;14.70;99.90;;;;;;6716391;88;20202;-75
2021/12/30 21:03:31;;;;;;;1.23;0.50;;;14.70;99.90;;;;;;6725082;88;20384;-76
2021/12/30 21:13:32;;;;;;;2.10;0.60;;;14.80;99.90;;;;;;6725385;88;20276;-74
2021/12/30 21:23:32;;;;;;;1.05;0.50;;;14.90;99.90;;;;;;6724225;88;20196;-77
2021/12/30 21:33:33;;;;;;;2.10;0.80;;;14.70;99.90;;;;;;6730758;88;20188;-75
2021/12/30 21:43:34;;;;;;;1.55;0.60;;;14.70;99.90;;;;;;6728615;88;20585;-77
2021/12/30 21:53:35;;;;;;;3.70;1.10;;;14.80;99.90;;;;;;6734102;88;20188;-76
2021/12/30 22:03:35;;;;;;;2.03;0.62;;;14.60;99.90;;;;;;6718548;88;20197;-75
2021/12/30 22:13:37;;;;;;;1.85;0.60;;;14.70;99.90;;;;;;6720349;88;20200;-75
2021/12/30 22:23:37;;;;;;;2.83;0.60;;;14.70;99.90;;;;;;6703948;88;20202;-75
2021/12/30 22:33:38;;;;;;;2.35;0.75;;;14.60;99.90;;;;;;6712867;88;20205;-75
2021/12/30 22:43:39;;;;;;;2.27;0.80;;;14.50;99.90;;;;;;6718628;88;20285;-74
2021/12/30 22:53:40;;;;;;;1.37;0.70;;;14.40;99.90;;;;;;6717289;88;20246;-75
2021/12/30 23:03:50;;;;;;;3.83;0.75;;;14.50;99.90;;;;;;6727558;88;20180;-75
2021/12/30 23:13:51;;;;;;;2.17;0.60;;;14.40;99.90;;;;;;6714515;88;20312;-75
2021/12/30 23:23:53;;;;;;;1.70;0.90;;;14.30;99.90;;;;;;6728372;88;20186;-76
2021/12/30 23:33:54;;;;;;;4.93;0.70;;;14.20;99.90;;;;;;6718033;88;20335;-75
2021/12/30 23:43:54;;;;;;;2.60;0.77;;;14.10;99.90;;;;;;6705118;88;20185;-75
2021/12/30 23:53:55;;;;;;;1.77;0.65;;;14.00;99.90;;;;;;6721413;88;20188;-75
